Arnaudville, Louisiana
Current Conditions -  °F | °C
As of 3:57 PM on Sunday 21 Dec 2014 (Local Time) from KLFT Reporting Station
Scattered Clouds Scattered Clouds  
Wind Chill: 56°   Ceiling: Unl
Heat Index: 56°   Visibility: 10mi
Dew Point: 50°   Wind: 0mph
Humidity: 80%   Direction: NA
Pressure: 30"   Gusts: NA
Location:  30.4°N, 91.93°W
Report Text: KLFT 212157Z 00000KT 10SM SCT011 13/10 A3000 RMK AO2 T01330100
Loading
Personal Weather Stations






























Interactive Weather Map New forecast layout! Learn more

10-Day Weather Forecast

Advertisements
Track Severe Weather on mobile